Prospect Heights, Colorado
Current Conditions -  °F | °C
As of 3:15 PM on Friday 24 Oct 2014 (Local Time) from K1V6 Reporting Station
Clear Clear  
Wind Chill: 86°   Ceiling: Unl
Heat Index: 86°   Visibility: 10mi
Dew Point: 19°   Wind: 0mph
Humidity: 9%   Direction: NA
Pressure: 30.15"   Gusts: NA
Location:  38.533°N, 105.389°W
Report Text: K1V6 242115Z AUTO 00000KT 10SM CLR 30/M07 A3015 RMK AO2
Loading
Personal Weather Stations






























Interactive Weather Map
Tropical Storm Tracking
New forecast layout! Learn more

10-Day Weather Forecast

Advertisements
Track Severe Weather on mobile